Time;durP1;ratioP1;P1;durP2;ratioP2;P2;SDS_P1;SDS_P2;PMS_P1;PMS_P2;Temp;Humidity;BMP_temperature;BMP_pressure;BME280_temperature;BME280_humidity;BME280_pressure;Samples;Min_cycle;Max_cycle;Signal;HPM_P1;HPM_P2
2022/09/04 00:02:16;;;;;;;20.55;13.82;;;;;;;17.68;100.00;101429.22;7393405;19;20444;-76
2022/09/04 00:05:00;;;;;;;22.40;15.80;;;;;;;17.62;100.00;101432.78;7392700;19;20011;-77
2022/09/04 00:07:40;;;;;;;22.17;15.10;;;;;;;17.58;100.00;101435.47;7394358;19;20015;-76
2022/09/04 00:10:20;;;;;;;20.55;14.57;;;;;;;17.56;100.00;101445.22;7391973;19;20508;-76
2022/09/04 00:12:55;;;;;;;23.08;16.42;;;;;;;17.53;100.00;101440.81;7390097;19;20407;-76
2022/09/04 00:15:36;;;;;;;24.77;15.50;;;;;;;17.51;100.00;101445.22;7384743;19;20097;-76
2022/09/04 00:18:14;;;;;;;26.65;17.13;;;;;;;17.48;100.00;101441.72;7384669;19;20011;-76
2022/09/04 00:20:49;;;;;;;23.50;15.85;;;;;;;17.44;100.00;101447.91;7382513;19;20014;-76
2022/09/04 00:23:28;;;;;;;25.38;17.13;;;;;;;17.44;100.00;101447.91;7382084;19;20354;-76
2022/09/04 00:26:09;;;;;;;26.05;17.80;;;;;;;17.46;100.00;101454.09;7382351;19;20444;-76
2022/09/04 00:28:43;;;;;;;26.65;16.30;;;;;;;17.47;100.00;101453.22;7382321;19;20056;-76
2022/09/04 00:31:23;;;;;;;30.30;18.73;;;;;;;17.49;100.00;101452.31;7382956;19;20039;-76
2022/09/04 00:34:06;;;;;;;36.10;19.15;;;;;;;17.48;100.00;101462.94;7382557;19;20570;-76
2022/09/04 00:36:42;;;;;;;30.77;19.07;;;;;;;17.45;100.00;101461.19;7383423;19;20053;-76
2022/09/04 00:39:27;;;;;;;32.47;19.88;;;;;;;17.42;100.00;101466.50;7382602;19;20264;-76
2022/09/04 00:42:14;;;;;;;34.45;21.30;;;;;;;17.41;100.00;101464.72;7384871;19;20044;-76
2022/09/04 00:44:55;;;;;;;33.40;20.02;;;;;;;17.40;100.00;101465.63;7385236;19;20021;-76
2022/09/04 00:47:50;;;;;;;37.53;22.75;;;;;;;17.39;100.00;101474.47;7381986;19;20492;-76
2022/09/04 00:50:55;;;;;;;39.13;21.55;;;;;;;17.38;100.00;101482.44;7385527;19;20006;-76
2022/09/04 00:53:46;;;;;;;32.72;20.05;;;;;;;17.35;100.00;101472.72;7377522;19;20456;-76
2022/09/04 00:56:39;;;;;;;34.88;19.77;;;;;;;17.30;100.00;101479.81;7385006;19;20207;-77
2022/09/04 00:59:28;;;;;;;37.47;22.40;;;;;;;17.25;100.00;101476.28;7385329;19;20019;-77
2022/09/04 01:02:10;;;;;;;33.25;18.95;;;;;;;17.19;100.00;101479.84;7384125;19;20034;-78
2022/09/04 01:04:45;;;;;;;30.67;19.20;;;;;;;17.18;100.00;101488.69;7386622;19;20483;-77
2022/09/04 01:07:38;;;;;;;30.10;18.85;;;;;;;17.15;100.00;101488.69;7387007;19;20110;-78
2022/09/04 01:10:21;;;;;;;;;;;;;;;17.11;100.00;101492.25;7385209;19;20010;-75
2022/09/04 01:13:01;;;;;;;28.02;17.10;;;;;;;17.13;100.00;101498.41;7381761;19;19923;-78
2022/09/04 01:15:44;;;;;;;27.60;16.88;;;;;;;17.15;100.00;101507.25;7386009;19;20070;-78
2022/09/04 01:18:20;;;;;;;28.30;17.50;;;;;;;17.15;100.00;101501.06;7387174;19;20689;-77
2022/09/04 01:21:05;;;;;;;30.38;17.25;;;;;;;17.22;100.00;101508.13;7385787;19;20022;-78
2022/09/04 01:24:06;;;;;;;30.10;17.65;;;;;;;17.22;100.00;101503.69;7385844;19;20011;-76
2022/09/04 01:26:49;;;;;;;27.33;17.02;;;;;;;17.20;100.00;101500.16;7389555;19;20017;-78
2022/09/04 01:29:30;;;;;;;23.10;15.40;;;;;;;17.17;100.00;101505.47;7389817;19;20082;-77
2022/09/04 01:32:09;;;;;;;24.27;14.90;;;;;;;17.15;100.00;101495.75;7392711;19;20014;-77
2022/09/04 01:34:47;;;;;;;20.27;13.20;;;;;;;17.14;100.00;101504.59;7390120;19;20043;-71
2022/09/04 01:37:32;;;;;;;21.63;13.85;;;;;;;17.12;100.00;101501.97;7395564;19;20010;-71
2022/09/04 01:40:21;;;;;;;22.27;14.57;;;;;;;17.16;100.00;101501.06;7396273;19;20018;-71
2022/09/04 01:43:10;;;;;;;17.88;12.13;;;;;;;17.11;100.00;101502.84;7399150;19;20017;-71
2022/09/04 01:46:06;;;;;;;16.63;10.73;;;;;;;17.08;100.00;101513.47;7397396;19;20014;-70
2022/09/04 01:48:46;;;;;;;16.98;11.38;;;;;;;17.08;100.00;101516.09;7399392;19;20010;-72
2022/09/04 01:51:24;;;;;;;17.13;12.63;;;;;;;17.07;100.00;101508.16;7398083;19;20018;-72
2022/09/04 01:54:11;;;;;;;16.02;10.65;;;;;;;17.08;100.00;101516.09;7391716;19;20028;-71
2022/09/04 01:56:47;;;;;;;15.73;11.00;;;;;;;17.08;100.00;101520.53;7390321;19;20024;-71
2022/09/04 01:59:28;;;;;;;15.95;10.55;;;;;;;17.06;100.00;101522.28;7390434;19;20019;-72
2022/09/04 02:02:04;;;;;;;17.52;12.32;;;;;;;17.08;100.00;101518.75;7389754;19;20031;-73
2022/09/04 02:04:42;;;;;;;16.50;11.43;;;;;;;17.09;100.00;101520.53;7389092;19;20022;-72
2022/09/04 02:07:20;;;;;;;17.25;12.38;;;;;;;17.04;100.00;101519.66;7389278;19;20104;-71
2022/09/04 02:10:02;;;;;;;14.82;10.65;;;;;;;16.98;100.00;101524.97;7388027;19;20011;-72
2022/09/04 02:12:41;;;;;;;15.65;11.50;;;;;;;16.93;100.00;101530.28;7389105;19;20018;-72
2022/09/04 02:15:29;;;;;;;16.83;12.13;;;;;;;16.89;100.00;101524.97;7389729;19;20010;-71
2022/09/04 02:18:11;;;;;;;17.17;11.30;;;;;;;16.87;100.00;101534.69;7387709;19;20082;-73
2022/09/04 02:20:48;;;;;;;14.35;10.18;;;;;;;16.83;100.00;101530.28;7387111;19;20014;-70
2022/09/04 02:23:28;;;;;;;16.58;11.93;;;;;;;16.80;100.00;101532.94;7388376;19;20031;-70
2022/09/04 02:26:05;;;;;;;15.93;11.35;;;;;;;16.77;100.00;101533.81;7388671;19;20200;-71
2022/09/04 02:28:46;;;;;;;16.40;12.23;;;;;;;16.75;100.00;101532.06;7387652;19;20022;-71
2022/09/04 02:31:31;;;;;;;15.88;12.65;;;;;;;16.74;100.00;101536.47;7389461;19;20009;-70
2022/09/04 02:34:10;;;;;;;16.60;12.35;;;;;;;16.71;100.00;101541.78;7387726;19;20018;-72
2022/09/04 02:36:48;;;;;;;17.52;11.77;;;;;;;16.72;100.00;101547.97;7388036;19;20373;-72
2022/09/04 02:39:35;;;;;;;16.85;11.95;;;;;;;16.70;100.00;101547.06;7388444;19;20018;-77
2022/09/04 02:42:12;;;;;;;18.55;12.38;;;;;;;16.67;100.00;101546.19;7388025;19;20002;-75
2022/09/04 02:44:51;;;;;;;19.63;12.52;;;;;;;16.68;100.00;101558.56;7388638;19;20015;-77
2022/09/04 02:47:34;;;;;;;21.55;13.88;;;;;;;16.68;100.00;101552.38;7389221;19;20014;-71
2022/09/04 02:50:15;;;;;;;18.77;13.13;;;;;;;16.64;100.00;101551.50;7385900;19;20023;-71
2022/09/04 02:53:04;;;;;;;20.88;13.93;;;;;;;16.63;100.00;101554.13;7382980;19;21360;-72
2022/09/04 02:55:51;;;;;;;20.75;13.80;;;;;;;16.60;100.00;101551.50;7388783;19;20023;-71
2022/09/04 02:58:30;;;;;;;22.33;14.90;;;;;;;16.58;100.00;101546.19;7388278;19;20034;-71
2022/09/04 03:01:07;;;;;;;22.55;14.00;;;;;;;16.55;100.00;101546.19;7374969;19;20028;-72
2022/09/04 03:03:47;;;;;;;23.50;14.52;;;;;;;16.59;100.00;101557.66;7385828;19;20054;-71
2022/09/04 03:06:26;;;;;;;26.15;16.58;;;;;;;16.57;100.00;101555.03;7387619;19;20037;-71
2022/09/04 03:09:08;;;;;;;25.33;15.38;;;;;;;16.55;100.00;101551.50;7388203;19;20135;-72
2022/09/04 03:11:42;;;;;;;21.42;14.48;;;;;;;16.52;100.00;101559.44;7387751;19;20072;-72
2022/09/04 03:14:19;;;;;;;25.90;14.82;;;;;;;16.50;100.00;101558.56;7386049;19;20010;-71
2022/09/04 03:16:57;;;;;;;22.52;15.40;;;;;;;16.47;100.00;101558.56;7387036;19;20030;-71
2022/09/04 03:19:37;;;;;;;25.20;16.50;;;;;;;16.44;100.00;101558.53;7385949;19;20006;-71
2022/09/04 03:22:14;;;;;;;25.00;16.65;;;;;;;16.44;100.00;101558.53;7385874;19;20035;-72
2022/09/04 03:25:07;;;;;;;28.58;17.10;;;;;;;16.43;100.00;101555.91;7388142;19;20019;-71
2022/09/04 03:27:37;;;;;;;27.63;17.52;;;;;;;16.46;100.00;101556.78;7386232;19;20011;-72
2022/09/04 03:30:11;;;;;;;26.15;17.80;;;;;;;16.48;100.00;101564.72;7389262;19;20017;-72
2022/09/04 03:32:50;;;;;;;31.08;18.80;;;;;;;16.47;100.00;101569.13;7385814;19;20018;-72
2022/09/04 03:35:35;;;;;;;30.17;18.10;;;;;;;16.48;100.00;101564.72;7386029;19;20134;-72
2022/09/04 03:38:20;;;;;;;26.48;17.23;;;;;;;16.44;100.00;101571.78;7387163;19;20022;-71
2022/09/04 03:41:04;;;;;;;26.77;17.52;;;;;;;16.41;100.00;101574.44;7384971;19;20010;-72
2022/09/04 03:43:48;;;;;;;25.65;15.82;;;;;;;16.38;100.00;101585.00;7385441;19;20739;-72
2022/09/04 03:46:32;;;;;;;24.27;15.02;;;;;;;16.39;100.00;101584.13;7385128;19;20053;-72
2022/09/04 03:49:15;;;;;;;27.45;17.00;;;;;;;16.42;100.00;101591.19;7385960;19;20090;-72
2022/09/04 03:52:05;;;;;;;29.00;16.98;;;;;;;16.43;100.00;101588.56;7386514;19;20126;-72
2022/09/04 03:54:49;;;;;;;28.10;16.38;;;;;;;16.43;100.00;101593.84;7385285;19;20015;-78
2022/09/04 03:57:50;;;;;;;29.55;17.00;;;;;;;16.43;100.00;101596.50;7385089;19;20007;-72
2022/09/04 04:00:23;;;;;;;27.90;16.48;;;;;;;16.38;100.00;101600.00;7384921;19;20027;-72
2022/09/04 04:03:06;;;;;;;27.20;15.38;;;;;;;16.35;100.00;101598.25;7385695;19;20014;-72
2022/09/04 04:05:55;;;;;;;29.92;17.77;;;;;;;16.33;100.00;101597.38;7386815;19;20105;-71
2022/09/04 04:08:58;;;;;;;29.15;16.80;;;;;;;16.28;100.00;101597.34;7385825;19;20510;-71
2022/09/04 04:11:52;;;;;;;24.57;15.90;;;;;;;16.24;100.00;101597.34;7383805;19;20047;-72
2022/09/04 04:14:58;;;;;;;29.08;17.98;;;;;;;16.24;100.00;101597.34;7384866;19;20031;-71
2022/09/04 04:17:49;;;;;;;25.67;15.75;;;;;;;16.28;100.00;101604.41;7384152;19;20018;-71
2022/09/04 04:20:37;;;;;;;27.48;16.88;;;;;;;16.24;100.00;101605.28;7384961;19;20110;-71
2022/09/04 04:23:25;;;;;;;33.00;17.88;;;;;;;16.21;100.00;101602.63;7385577;19;20010;-72
2022/09/04 04:26:10;;;;;;;28.63;17.00;;;;;;;16.19;100.00;101613.22;7382776;19;20011;-72
2022/09/04 04:29:01;;;;;;;25.10;15.65;;;;;;;16.18;100.00;101610.56;7383990;19;20013;-72
2022/09/04 04:32:09;;;;;;;29.17;16.45;;;;;;;16.15;100.00;101608.78;7383288;19;20007;-72
2022/09/04 04:34:48;;;;;;;25.42;16.35;;;;;;;16.13;100.00;101617.59;7385091;19;20038;-71
2022/09/04 04:37:27;;;;;;;26.38;16.08;;;;;;;16.09;100.00;101616.72;7385388;19;20090;-72
2022/09/04 04:40:04;;;;;;;27.25;16.85;;;;;;;16.06;100.00;101619.34;7383248;19;20013;-71
2022/09/04 04:42:50;;;;;;;33.50;20.20;;;;;;;16.06;100.00;101626.41;7385489;19;20692;-71
2022/09/04 04:48:49;;;;;;;32.30;19.42;;;;;;;16.06;100.00;101629.03;7384375;19;20525;-72
2022/09/04 04:51:44;;;;;;;32.83;19.52;;;;;;;16.03;100.00;101624.63;7386570;19;20015;-70
2022/09/04 04:54:27;;;;;;;30.80;17.52;;;;;;;15.99;100.00;101623.72;7382001;19;20086;-72
2022/09/04 04:57:02;;;;;;;29.27;18.25;;;;;;;15.98;100.00;101621.09;7384210;19;20061;-72
2022/09/04 04:59:42;;;;;;;31.67;18.85;;;;;;;16.00;100.00;101629.91;7386843;19;20007;-72
2022/09/04 05:02:23;;;;;;;29.20;17.90;;;;;;;16.02;100.00;101630.81;7390326;19;20010;-72
2022/09/04 05:05:04;;;;;;;33.38;20.63;;;;;;;16.05;100.00;101637.88;7392773;19;20550;-72
2022/09/04 05:07:42;;;;;;;33.22;19.10;;;;;;;16.05;100.00;101636.09;7395574;19;20564;-71
2022/09/04 05:10:20;;;;;;;35.20;20.50;;;;;;;16.03;100.00;101644.03;7395290;19;20007;-70
2022/09/04 05:13:10;;;;;;;32.65;18.88;;;;;;;16.03;100.00;101648.44;7391349;19;20006;-73
2022/09/04 05:15:50;;;;;;;32.78;18.30;;;;;;;16.04;100.00;101647.56;7384717;19;20015;-71
2022/09/04 05:18:46;;;;;;;33.47;18.55;;;;;;;16.07;100.00;101654.63;7384378;19;20543;-72
2022/09/04 05:21:23;;;;;;;37.30;19.52;;;;;;;16.08;100.00;101664.34;7383861;19;20028;-72
2022/09/04 05:24:01;;;;;;;33.97;18.75;;;;;;;16.08;100.00;101675.81;7383390;19;20027;-72
2022/09/04 05:26:42;;;;;;;39.33;21.88;;;;;;;16.10;100.00;101667.88;7384140;19;20632;-72
2022/09/04 05:29:17;;;;;;;33.25;18.65;;;;;;;16.11;100.00;101670.53;7383445;19;20070;-72
2022/09/04 05:32:00;;;;;;;33.88;20.63;;;;;;;16.14;100.00;101667.88;7382251;19;20019;-77
2022/09/04 05:34:42;;;;;;;32.15;18.50;;;;;;;16.15;100.00;101682.88;7384451;19;20019;-77
2022/09/04 05:37:18;;;;;;;36.28;20.00;;;;;;;16.21;100.00;101687.31;7383757;19;20017;-78
2022/09/04 05:40:02;;;;;;;38.47;21.30;;;;;;;16.24;100.00;101682.03;7384000;19;20475;-77
2022/09/04 05:42:56;;;;;;;31.58;18.60;;;;;;;16.32;100.00;101696.19;7385057;19;20557;-78
2022/09/04 05:45:38;;;;;;;37.58;20.55;;;;;;;16.39;100.00;101691.78;7383023;19;20573;-77
2022/09/04 05:48:23;;;;;;;33.47;20.80;;;;;;;16.48;100.00;101695.34;7382947;19;20015;-77
2022/09/04 05:51:07;;;;;;;35.58;20.98;;;;;;;16.55;100.00;101694.50;7383724;19;20055;-77
2022/09/04 05:54:09;;;;;;;38.15;22.08;;;;;;;16.73;100.00;101695.41;7378474;19;20031;-78
2022/09/04 05:57:14;;;;;;;35.83;20.38;;;;;;;16.88;100.00;101698.06;7381398;19;20014;-78
2022/09/04 06:00:09;;;;;;;35.60;20.70;;;;;;;16.99;100.00;101702.50;7380505;19;20031;-77
2022/09/04 06:03:13;;;;;;;36.00;21.92;;;;;;;17.11;100.00;101701.63;7379521;19;20010;-77
2022/09/04 06:06:05;;;;;;;33.90;20.27;;;;;;;17.27;100.00;101699.84;7384981;19;20003;-78
2022/09/04 06:08:57;;;;;;;39.38;22.92;;;;;;;17.35;100.00;101707.81;7384017;19;20626;-77
2022/09/04 06:11:50;;;;;;;38.10;22.60;;;;;;;17.47;100.00;101707.78;7381649;19;20100;-77
2022/09/04 06:14:53;;;;;;;39.35;21.67;;;;;;;17.62;100.00;101705.13;7383130;19;20010;-77
2022/09/04 06:17:49;;;;;;;33.83;20.23;;;;;;;17.80;100.00;101712.16;7381779;19;20515;-79
2022/09/04 06:20:35;;;;;;;35.95;21.77;;;;;;;17.98;100.00;101710.31;7383798;19;20017;-78
2022/09/04 06:23:32;;;;;;;37.70;21.15;;;;;;;18.19;100.00;101711.13;7385796;19;20055;-78
2022/09/04 06:26:20;;;;;;;42.80;24.33;;;;;;;18.41;100.00;101714.56;7392926;19;20015;-77
2022/09/04 06:29:18;;;;;;;33.85;20.20;;;;;;;18.60;100.00;101717.16;7391297;19;20021;-78
2022/09/04 06:32:13;;;;;;;42.45;24.15;;;;;;;18.79;100.00;101717.91;7390649;19;20018;-78
2022/09/04 06:35:11;;;;;;;38.63;22.25;;;;;;;18.89;100.00;101724.03;7392885;19;20011;-78
2022/09/04 06:37:56;;;;;;;43.30;23.90;;;;;;;19.08;100.00;101728.31;7394279;19;20031;-80
2022/09/04 06:40:45;;;;;;;35.35;20.75;;;;;;;19.31;100.00;101732.56;7395196;19;20003;-79
2022/09/04 06:43:26;;;;;;;37.08;23.65;;;;;;;19.42;100.00;101731.59;7395558;19;20010;-78
2022/09/04 06:46:08;;;;;;;37.10;22.88;;;;;;;19.62;100.00;101725.22;7397373;19;20014;-80
2022/09/04 06:48:53;;;;;;;38.15;22.08;;;;;;;19.81;100.00;101727.66;7397952;19;20015;-80
2022/09/04 06:51:47;;;;;;;35.92;23.05;;;;;;;20.02;100.00;101726.53;7394643;19;20010;-78
2022/09/04 06:54:32;;;;;;;37.72;21.67;;;;;;;20.17;100.00;101726.34;7392683;19;20270;-78
2022/09/04 06:57:28;;;;;;;41.17;23.27;;;;;;;20.35;100.00;101733.25;7391830;19;20010;-77
2022/09/04 07:00:07;;;;;;;38.60;23.85;;;;;;;20.48;100.00;101734.88;7391736;19;20094;-79
2022/09/04 07:03:05;;;;;;;39.65;23.70;;;;;;;20.72;100.00;101738.97;7389991;19;20014;-80
2022/09/04 07:05:48;;;;;;;41.90;24.98;;;;;;;20.93;100.00;101742.22;7389550;19;20010;-78
2022/09/04 07:08:32;;;;;;;41.45;24.58;;;;;;;21.10;100.00;101741.03;7387488;19;20523;-80
2022/09/04 07:11:16;;;;;;;39.90;23.83;;;;;;;21.36;100.00;101737.97;7390101;19;20017;-81
2022/09/04 07:14:28;;;;;;;45.83;26.98;;;;;;;21.57;100.00;101742.06;7390356;19;20518;-79
2022/09/04 07:17:07;;;;;;;44.47;25.52;;;;;;;21.69;100.00;101747.19;7390412;19;20015;-79
2022/09/04 07:20:11;;;;;;;46.25;27.58;;;;;;;21.86;100.00;101747.72;7389668;19;20073;-79
2022/09/04 07:23:16;;;;;;;47.10;28.70;;;;;;;22.13;100.00;101753.47;7389479;19;20014;-79
2022/09/04 07:25:52;;;;;;;45.50;27.48;;;;;;;22.34;100.00;101746.81;7392935;19;20018;-80
2022/09/04 07:28:37;;;;;;;47.42;28.83;;;;;;;22.22;100.00;101757.75;7389680;19;20040;-79
2022/09/04 07:31:15;;;;;;;45.35;26.38;;;;;;;22.24;100.00;101751.47;7388779;19;20014;-79
2022/09/04 07:33:57;;;;;;;47.58;29.38;;;;;;;22.51;100.00;101760.69;7387485;19;20006;-79
2022/09/04 07:36:37;;;;;;;51.47;30.65;;;;;;;22.68;100.00;101765.66;7387454;19;20348;-80
2022/09/04 07:39:15;;;;;;;50.03;29.88;;;;;;;22.39;100.00;101763.63;7388138;19;20014;-80
2022/09/04 07:41:52;;;;;;;52.75;31.20;;;;;;;22.29;100.00;101770.06;7387751;19;20151;-80
2022/09/04 07:44:28;;;;;;;46.65;28.60;;;;;;;22.37;100.00;101771.66;7386813;19;20037;-78
2022/09/04 07:47:12;;;;;;;50.20;31.73;;;;;;;22.77;100.00;101762.78;7390729;19;20010;-79
2022/09/04 07:49:53;;;;;;;52.38;31.33;;;;;;;23.02;100.00;101772.00;7392037;19;20006;-78
2022/09/04 07:52:38;;;;;;;44.60;28.08;;;;;;;23.33;100.00;101769.47;7388859;19;20435;-79
2022/09/04 07:55:25;;;;;;;49.55;31.63;;;;;;;23.66;100.00;101774.94;7392257;19;20039;-78
2022/09/04 07:58:19;;;;;;;50.08;30.20;;;;;;;23.95;100.00;101779.47;7392921;19;20276;-78
2022/09/04 08:01:05;;;;;;;51.55;32.70;;;;;;;24.18;100.00;101782.41;7389735;19;20011;-79
2022/09/04 08:03:57;;;;;;;53.92;32.97;;;;;;;24.18;100.00;101781.53;7389331;19;20015;-78
2022/09/04 08:06:32;;;;;;;61.58;36.67;;;;;;;24.20;100.00;101785.91;7388863;19;20015;-80
2022/09/04 08:09:36;;;;;;;63.45;39.75;;;;;;;24.12;100.00;101793.28;7387581;19;20011;-78
2022/09/04 08:12:34;;;;;;;59.58;37.17;;;;;;;24.30;100.00;101791.94;7385342;19;20027;-80
2022/09/04 08:15:16;;;;;;;51.95;35.22;;;;;;;24.61;100.00;101799.97;7383971;19;20031;-78
2022/09/04 08:18:18;;;;;;;61.20;36.60;;;;;;;24.64;100.00;101799.88;7386055;19;20023;-78
2022/09/04 08:21:08;;;;;;;61.35;38.78;;;;;;;24.85;100.00;101796.53;7388020;19;20447;-78
2022/09/04 08:24:01;;;;;;;68.80;43.97;;;;;;;24.64;100.00;101803.44;7385876;19;19999;-78
2022/09/04 08:26:45;;;;;;;68.75;42.08;;;;;;;24.64;100.00;101808.81;7390021;19;20047;-78
2022/09/04 08:29:28;;;;;;;71.38;45.20;;;;;;;24.61;100.00;101803.53;7386131;19;20543;-78
2022/09/04 08:32:04;;;;;;;;;;;;;;;24.89;100.00;101803.56;7386200;19;20012;-78
2022/09/04 08:34:59;;;;;;;65.78;40.35;;;;;;;25.20;100.00;101810.66;7385960;19;19918;-79
2022/09/04 08:37:45;;;;;;;62.97;38.08;;;;;;;25.38;100.00;101810.06;7384055;19;20011;-79
2022/09/04 08:40:41;;;;;;;63.78;40.20;;;;;;;25.69;100.00;101805.44;7384365;19;20011;-78
2022/09/04 08:43:40;;;;;;;59.58;38.10;;;;;;;25.91;100.00;101812.78;7383557;19;20122;-78
2022/09/04 08:46:37;;;;;;;63.22;37.80;;;;;;;26.04;100.00;101814.06;7380947;19;20539;-73
2022/09/04 08:49:40;;;;;;;66.28;40.47;;;;;;;26.06;100.00;101812.19;7380809;19;20002;-72
2022/09/04 08:52:37;;;;;;;55.70;34.72;;;;;;;26.35;100.00;101809.38;7379957;19;20027;-72
2022/09/04 08:55:44;;;;;;;65.28;40.40;;;;;;;26.10;100.00;101821.91;7380798;19;20031;-72
2022/09/04 08:58:54;;;;;;;58.60;36.75;;;;;;;26.20;100.00;101817.94;7380919;19;20403;-73
2022/09/04 09:01:57;;;;;;;60.13;36.72;;;;;;;26.22;100.00;101818.78;7382240;19;20011;-72
2022/09/04 09:04:53;;;;;;;56.97;35.85;;;;;;;26.13;100.00;101827.19;7379953;19;20430;-73
2022/09/04 09:07:59;;;;;;;60.83;37.03;;;;;;;26.07;100.00;101828.28;7378750;19;20043;-72
2022/09/04 09:11:00;;;;;;;53.42;33.28;;;;;;;26.38;100.00;101829.88;7380191;19;20086;-73
2022/09/04 09:14:04;;;;;;;55.03;34.05;;;;;;;26.58;100.00;101831.84;7376982;19;20018;-73
2022/09/04 09:16:44;;;;;;;59.17;36.45;;;;;;;26.57;100.00;101838.16;7380556;19;20046;-71
2022/09/04 09:19:41;;;;;;;60.58;37.55;;;;;;;26.56;100.00;101834.59;7379279;19;20025;-72
2022/09/04 09:22:18;;;;;;;54.10;35.17;;;;;;;26.82;100.00;101825.53;7380304;19;20011;-74
2022/09/04 09:25:21;;;;;;;57.28;35.33;;;;;;;26.69;100.00;101833.19;7380775;19;20010;-73
2022/09/04 09:28:25;;;;;;;56.17;35.13;;;;;;;26.69;100.00;101830.50;7380666;19;20046;-72
2022/09/04 09:31:42;;;;;;;49.05;32.60;;;;;;;26.83;100.00;101827.28;7377642;19;20022;-71
2022/09/04 09:34:42;;;;;;;46.35;30.20;;;;;;;26.54;100.00;101828.38;7381349;19;20007;-71
2022/09/04 09:37:49;;;;;;;42.20;27.20;;;;;;;27.03;100.00;101840.88;7379997;19;20035;-72
2022/09/04 09:40:43;;;;;;;44.38;27.88;;;;;;;27.24;100.00;101832.84;7376122;19;20357;-71
2022/09/04 09:43:49;;;;;;;44.28;28.98;;;;;;;27.04;100.00;101829.13;7381725;19;20511;-72
2022/09/04 09:46:53;;;;;;;45.05;30.33;;;;;;;26.92;100.00;101826.91;7377795;19;20015;-72
2022/09/04 09:49:44;;;;;;;;;;;;;;;27.36;100.00;101832.34;7379590;19;20109;-72
2022/09/04 09:52:38;;;;;;;36.03;24.27;;;;;;;27.59;98.02;101828.69;7374913;19;20334;-72
2022/09/04 09:55:49;;;;;;;38.60;25.20;;;;;;;27.60;93.71;101825.97;7376288;19;20475;-73
2022/09/04 09:58:53;;;;;;;32.33;19.77;;;;;;;27.80;90.44;101827.81;7383238;19;20010;-72
2022/09/04 10:01:52;;;;;;;30.88;19.60;;;;;;;27.44;89.96;101832.91;7384437;19;20014;-74
2022/09/04 10:04:51;;;;;;;37.75;22.75;;;;;;;27.17;93.76;101834.91;7384282;19;20006;-73
2022/09/04 10:07:55;;;;;;;34.30;22.38;;;;;;;27.44;94.26;101830.22;7387339;19;20030;-74
2022/09/04 10:10:58;;;;;;;32.38;20.92;;;;;;;27.73;91.37;101829.03;7387069;19;20014;-74
2022/09/04 10:13:48;;;;;;;31.25;19.40;;;;;;;27.42;90.33;101834.78;7385931;19;20011;-73
2022/09/04 10:16:43;;;;;;;33.47;19.40;;;;;;;27.66;89.07;101839.19;7386272;19;20010;-72
2022/09/04 10:19:39;;;;;;;26.58;15.75;;;;;;;27.66;90.06;101836.50;7386214;19;20382;-73
2022/09/04 10:22:41;;;;;;;28.80;17.30;;;;;;;27.79;88.29;101828.75;7385131;19;20894;-73
2022/09/04 10:25:50;;;;;;;18.83;10.77;;;;;;;28.12;82.10;101833.59;7384514;19;20015;-74
2022/09/04 10:29:08;;;;;;;28.25;18.05;;;;;;;28.32;84.94;101826.41;7388814;19;20708;-74
2022/09/04 10:32:05;;;;;;;20.38;11.93;;;;;;;28.98;83.25;101838.69;7385119;19;20010;-72
2022/09/04 10:35:10;;;;;;;24.75;15.38;;;;;;;29.21;80.88;101838.44;7386953;19;20025;-73
2022/09/04 10:38:06;;;;;;;25.27;16.30;;;;;;;28.58;81.46;101827.91;7384535;19;20404;-74
2022/09/04 10:40:47;;;;;;;22.60;15.65;;;;;;;28.07;84.56;101824.88;7387349;19;20368;-73
2022/09/04 10:43:37;;;;;;;23.98;15.88;;;;;;;28.93;83.49;101839.78;7385160;19;20042;-73
2022/09/04 10:46:11;;;;;;;24.23;16.15;;;;;;;28.53;84.10;101835.34;7382202;19;20460;-73
2022/09/04 10:49:29;;;;;;;23.70;13.77;;;;;;;29.11;82.04;101846.13;7385733;19;20478;-74
2022/09/04 10:52:29;;;;;;;17.67;9.98;;;;;;;28.88;76.68;101843.66;7386148;19;20003;-73
2022/09/04 10:55:35;;;;;;;18.30;11.43;;;;;;;29.00;78.05;101840.38;7384553;19;20042;-74
2022/09/04 10:58:29;;;;;;;16.00;9.82;;;;;;;28.92;74.42;101840.75;7383348;19;20379;-73
2022/09/04 11:01:25;;;;;;;16.20;8.63;;;;;;;28.95;75.21;101847.81;7384349;19;20015;-73
2022/09/04 11:04:16;;;;;;;17.55;11.27;;;;;;;28.91;76.28;101852.50;7385321;19;20463;-74
2022/09/04 11:07:16;;;;;;;15.15;9.63;;;;;;;28.37;76.77;101855.00;7387544;19;20471;-73
2022/09/04 11:09:59;;;;;;;16.77;10.70;;;;;;;28.55;75.76;101854.16;7387363;19;20046;-73
2022/09/04 11:13:03;;;;;;;18.88;10.85;;;;;;;28.83;73.99;101849.28;7386158;19;20087;-72
2022/09/04 11:15:59;;;;;;;19.20;12.20;;;;;;;28.68;77.25;101846.38;7387366;19;20030;-73
2022/09/04 11:19:01;;;;;;;27.50;13.88;;;;;;;28.69;77.22;101859.81;7390682;19;20035;-72
2022/09/04 11:22:11;;;;;;;21.55;14.02;;;;;;;28.91;76.12;101846.22;7388264;19;20006;-73
2022/09/04 11:25:10;;;;;;;19.52;10.60;;;;;;;29.25;74.49;101837.31;7386335;19;20015;-74
2022/09/04 11:28:24;;;;;;;18.55;10.48;;;;;;;29.26;72.93;101836.38;7387901;19;20006;-75
2022/09/04 11:31:38;;;;;;;17.23;12.07;;;;;;;28.87;74.82;101842.78;7391858;19;20018;-82
2022/09/04 11:34:44;;;;;;;13.38;8.05;;;;;;;28.63;71.47;101841.19;7388034;19;20010;-79
2022/09/04 11:37:45;;;;;;;13.95;8.73;;;;;;;28.95;73.46;101845.13;7388898;19;20023;-81
2022/09/04 11:40:39;;;;;;;13.35;8.73;;;;;;;28.98;73.14;101852.19;7386737;19;20019;-80
2022/09/04 11:43:21;;;;;;;;;;;;;;;29.64;69.93;101848.03;7387979;19;20034;-81
2022/09/04 11:46:28;;;;;;;14.57;9.43;;;;;;;28.72;74.85;101845.28;7387336;19;19994;-82
2022/09/04 11:49:18;;;;;;;20.33;11.95;;;;;;;28.68;75.72;101841.84;7390045;19;20018;-80
2022/09/04 11:52:15;;;;;;;15.45;10.27;;;;;;;28.36;79.39;101855.94;7386652;19;20021;-73
2022/09/04 11:55:03;;;;;;;19.10;9.38;;;;;;;27.59;83.15;101844.84;7382411;19;20572;-74
2022/09/04 11:57:44;;;;;;;10.77;6.38;;;;;;;28.05;76.70;101845.63;7384046;19;20010;-73
2022/09/04 12:00:16;;;;;;;13.15;7.15;;;;;;;28.07;76.31;101847.31;7383290;19;20021;-73
2022/09/04 12:03:19;;;;;;;12.33;7.97;;;;;;;27.98;77.00;101845.03;7384266;19;20104;-72
2022/09/04 12:06:15;;;;;;;12.77;7.80;;;;;;;28.09;77.47;101845.41;7382821;19;20011;-74
2022/09/04 12:09:13;;;;;;;14.05;8.43;;;;;;;28.20;78.94;101845.81;7383173;19;20490;-74
2022/09/04 12:11:59;;;;;;;18.60;10.88;;;;;;;28.40;77.60;101849.47;7384527;19;20486;-73
2022/09/04 12:15:00;;;;;;;15.85;9.15;;;;;;;28.58;76.78;101844.09;7380548;19;20414;-76
2022/09/04 12:18:11;;;;;;;18.05;10.20;;;;;;;28.49;77.08;101849.91;7375112;19;20010;-75
2022/09/04 12:21:29;;;;;;;13.40;8.40;;;;;;;28.83;74.64;101862.78;7374700;19;20006;-76
2022/09/04 12:24:31;;;;;;;15.20;8.77;;;;;;;28.34;76.85;101853.31;7374123;19;21674;-75
2022/09/04 12:27:43;;;;;;;14.48;8.95;;;;;;;28.13;76.28;101857.81;7375351;19;20034;-76
2022/09/04 12:30:22;;;;;;;12.70;6.22;;;;;;;28.45;73.57;101855.53;7380461;19;20010;-76
2022/09/04 12:33:29;;;;;;;10.18;5.97;;;;;;;28.63;73.09;101849.28;7376332;19;20074;-76
2022/09/04 12:36:33;;;;;;;15.27;7.63;;;;;;;28.79;70.61;101857.56;7379180;19;20014;-78
2022/09/04 12:39:37;;;;;;;13.57;7.57;;;;;;;28.73;69.84;101863.25;7382411;19;21782;-77
2022/09/04 12:42:10;;;;;;;;;;;;;;;28.89;68.75;101864.31;7380879;19;20078;-76
2022/09/04 12:44:49;;;;;;;15.02;8.93;;;;;;;28.54;70.57;101868.59;7380817;19;20335;-77
2022/09/04 12:47:40;;;;;;;12.35;7.85;;;;;;;28.46;70.21;101860.84;7382914;19;20432;-77